Terminal Aerodrome Forecast
Issued by NWS

Home | Current Version | Previous Version | Graphics & Text | Print | Product List | Glossary On
Versions: 1 2 3 4 5 6 7 8 9 10 11 12 13 14 15 16 17 18
000
FTUS43 KFGF 291550 AAA
TAFBJI
TAF AMD
KBJI 291550Z 2916/3012 30009KT P6SM BKN250
     FM291800 32010G16KT P6SM VCTS BKN080CB
     FM292300 33006KT P6SM SCT100=

USA.gov is the U.S. government's official web portal to all federal, state and local government web resources and services.